sensor_id;sensor_type;location;lat;lon;timestamp;P1;durP1;ratioP1;P2;durP2;ratioP2
63555;SDS011;49700;48.072;7.800;2022-11-14T00:00:56;16.52;;;9.90;;
63555;SDS011;49700;48.072;7.800;2022-11-14T00:03:42;14.98;;;10.60;;
63555;SDS011;49700;48.072;7.800;2022-11-14T00:06:29;12.10;;;10.20;;
63555;SDS011;49700;48.072;7.800;2022-11-14T00:09:16;16.48;;;9.20;;
63555;SDS011;49700;48.072;7.800;2022-11-14T00:12:03;15.10;;;8.05;;
63555;SDS011;49700;48.072;7.800;2022-11-14T00:14:48;22.45;;;9.40;;
63555;SDS011;49700;48.072;7.800;2022-11-14T00:17:34;12.30;;;9.35;;
63555;SDS011;49700;48.072;7.800;2022-11-14T00:20:26;15.85;;;10.75;;
63555;SDS011;49700;48.072;7.800;2022-11-14T00:23:10;11.50;;;8.55;;
63555;SDS011;49700;48.072;7.800;2022-11-14T00:25:57;14.77;;;8.25;;
63555;SDS011;49700;48.072;7.800;2022-11-14T00:28:41;17.67;;;9.55;;
63555;SDS011;49700;48.072;7.800;2022-11-14T00:31:25;17.27;;;9.63;;
63555;SDS011;49700;48.072;7.800;2022-11-14T00:34:09;13.57;;;8.93;;
63555;SDS011;49700;48.072;7.800;2022-11-14T00:37:02;26.83;;;8.70;;
63555;SDS011;49700;48.072;7.800;2022-11-14T00:39:50;13.18;;;9.48;;
63555;SDS011;49700;48.072;7.800;2022-11-14T00:42:37;14.93;;;9.43;;
63555;SDS011;49700;48.072;7.800;2022-11-14T00:45:23;16.15;;;9.55;;
63555;SDS011;49700;48.072;7.800;2022-11-14T00:48:13;17.15;;;9.63;;
63555;SDS011;49700;48.072;7.800;2022-11-14T00:50:58;16.50;;;8.50;;
63555;SDS011;49700;48.072;7.800;2022-11-14T00:53:42;18.50;;;11.35;;
63555;SDS011;49700;48.072;7.800;2022-11-14T00:56:29;12.80;;;8.98;;
63555;SDS011;49700;48.072;7.800;2022-11-14T00:59:13;17.70;;;10.73;;
63555;SDS011;49700;48.072;7.800;2022-11-14T01:01:57;18.17;;;10.45;;
63555;SDS011;49700;48.072;7.800;2022-11-14T01:04:44;13.85;;;9.23;;
63555;SDS011;49700;48.072;7.800;2022-11-14T01:07:28;15.50;;;9.45;;
63555;SDS011;49700;48.072;7.800;2022-11-14T01:10:15;12.77;;;9.52;;
63555;SDS011;49700;48.072;7.800;2022-11-14T01:13:06;18.65;;;11.23;;
63555;SDS011;49700;48.072;7.800;2022-11-14T01:15:51;12.70;;;10.77;;
63555;SDS011;49700;48.072;7.800;2022-11-14T01:18:45;17.00;;;9.05;;
63555;SDS011;49700;48.072;7.800;2022-11-14T01:21:30;22.17;;;9.07;;
63555;SDS011;49700;48.072;7.800;2022-11-14T01:24:14;13.73;;;9.70;;
63555;SDS011;49700;48.072;7.800;2022-11-14T01:26:58;20.58;;;9.45;;
63555;SDS011;49700;48.072;7.800;2022-11-14T01:29:50;15.90;;;8.63;;
63555;SDS011;49700;48.072;7.800;2022-11-14T01:32:36;16.17;;;8.45;;
63555;SDS011;49700;48.072;7.800;2022-11-14T01:35:23;33.90;;;13.50;;
63555;SDS011;49700;48.072;7.800;2022-11-14T01:38:10;46.33;;;12.27;;
63555;SDS011;49700;48.072;7.800;2022-11-14T01:40:58;13.55;;;8.55;;
63555;SDS011;49700;48.072;7.800;2022-11-14T01:43:42;22.45;;;10.48;;
63555;SDS011;49700;48.072;7.800;2022-11-14T01:46:34;56.42;;;14.25;;
63555;SDS011;49700;48.072;7.800;2022-11-14T01:49:23;60.80;;;10.32;;
63555;SDS011;49700;48.072;7.800;2022-11-14T01:52:32;41.33;;;11.95;;
63555;SDS011;49700;48.072;7.800;2022-11-14T01:55:19;27.70;;;10.70;;
63555;SDS011;49700;48.072;7.800;2022-11-14T01:58:10;37.88;;;12.15;;
63555;SDS011;49700;48.072;7.800;2022-11-14T02:00:58;35.97;;;11.63;;
63555;SDS011;49700;48.072;7.800;2022-11-14T02:03:43;20.73;;;7.60;;
63555;SDS011;49700;48.072;7.800;2022-11-14T02:06:32;53.08;;;12.60;;
63555;SDS011;49700;48.072;7.800;2022-11-14T02:09:35;16.15;;;8.65;;
63555;SDS011;49700;48.072;7.800;2022-11-14T02:12:21;59.33;;;13.73;;
63555;SDS011;49700;48.072;7.800;2022-11-14T02:15:06;32.38;;;9.48;;
63555;SDS011;49700;48.072;7.800;2022-11-14T02:17:51;19.63;;;7.85;;
63555;SDS011;49700;48.072;7.800;2022-11-14T02:20:38;42.67;;;9.27;;
63555;SDS011;49700;48.072;7.800;2022-11-14T02:23:26;29.92;;;8.57;;
63555;SDS011;49700;48.072;7.800;2022-11-14T02:26:20;42.35;;;11.55;;
63555;SDS011;49700;48.072;7.800;2022-11-14T02:29:15;52.33;;;8.73;;
63555;SDS011;49700;48.072;7.800;2022-11-14T02:32:04;20.65;;;8.40;;
63555;SDS011;49700;48.072;7.800;2022-11-14T02:34:52;27.38;;;13.20;;
63555;SDS011;49700;48.072;7.800;2022-11-14T02:37:37;41.72;;;13.23;;
63555;SDS011;49700;48.072;7.800;2022-11-14T02:40:21;30.33;;;9.52;;
63555;SDS011;49700;48.072;7.800;2022-11-14T02:43:05;13.05;;;8.18;;
63555;SDS011;49700;48.072;7.800;2022-11-14T02:45:50;34.58;;;12.10;;
63555;SDS011;49700;48.072;7.800;2022-11-14T02:48:35;15.35;;;9.35;;
63555;SDS011;49700;48.072;7.800;2022-11-14T02:51:19;63.40;;;12.40;;
63555;SDS011;49700;48.072;7.800;2022-11-14T02:54:05;48.95;;;11.60;;
63555;SDS011;49700;48.072;7.800;2022-11-14T02:56:57;57.75;;;12.23;;
63555;SDS011;49700;48.072;7.800;2022-11-14T02:59:42;70.68;;;13.70;;
63555;SDS011;49700;48.072;7.800;2022-11-14T03:02:26;31.20;;;11.15;;
63555;SDS011;49700;48.072;7.800;2022-11-14T03:05:10;28.60;;;10.13;;
63555;SDS011;49700;48.072;7.800;2022-11-14T03:07:54;36.92;;;9.98;;
63555;SDS011;49700;48.072;7.800;2022-11-14T03:10:44;17.15;;;8.90;;
63555;SDS011;49700;48.072;7.800;2022-11-14T03:13:28;20.35;;;9.73;;
63555;SDS011;49700;48.072;7.800;2022-11-14T03:16:15;16.65;;;8.02;;
63555;SDS011;49700;48.072;7.800;2022-11-14T03:18:59;13.13;;;6.93;;
63555;SDS011;49700;48.072;7.800;2022-11-14T03:21:45;13.60;;;7.78;;
63555;SDS011;49700;48.072;7.800;2022-11-14T03:24:33;18.63;;;7.63;;
63555;SDS011;49700;48.072;7.800;2022-11-14T03:27:18;13.65;;;7.10;;
63555;SDS011;49700;48.072;7.800;2022-11-14T03:30:03;18.60;;;6.57;;
63555;SDS011;49700;48.072;7.800;2022-11-14T03:32:48;13.13;;;5.70;;
63555;SDS011;49700;48.072;7.800;2022-11-14T03:35:32;21.92;;;9.52;;
63555;SDS011;49700;48.072;7.800;2022-11-14T03:38:17;15.60;;;6.18;;
63555;SDS011;49700;48.072;7.800;2022-11-14T03:41:17;14.48;;;7.15;;
63555;SDS011;49700;48.072;7.800;2022-11-14T03:44:01;21.60;;;7.75;;
63555;SDS011;49700;48.072;7.800;2022-11-14T03:46:45;25.65;;;7.28;;
63555;SDS011;49700;48.072;7.800;2022-11-14T03:49:32;11.52;;;4.28;;
63555;SDS011;49700;48.072;7.800;2022-11-14T03:52:27;10.35;;;7.32;;
63555;SDS011;49700;48.072;7.800;2022-11-14T03:55:14;14.63;;;6.93;;
63555;SDS011;49700;48.072;7.800;2022-11-14T03:57:59;13.60;;;5.70;;
63555;SDS011;49700;48.072;7.800;2022-11-14T04:00:43;15.05;;;6.05;;
63555;SDS011;49700;48.072;7.800;2022-11-14T04:03:28;20.30;;;6.65;;
63555;SDS011;49700;48.072;7.800;2022-11-14T04:06:12;11.85;;;5.63;;
63555;SDS011;49700;48.072;7.800;2022-11-14T04:08:58;17.30;;;6.00;;
63555;SDS011;49700;48.072;7.800;2022-11-14T04:11:44;42.90;;;7.40;;
63555;SDS011;49700;48.072;7.800;2022-11-14T04:14:28;23.45;;;7.82;;
63555;SDS011;49700;48.072;7.800;2022-11-14T04:17:15;17.23;;;7.47;;
63555;SDS011;49700;48.072;7.800;2022-11-14T04:20:08;31.35;;;9.10;;
63555;SDS011;49700;48.072;7.800;2022-11-14T04:22:55;9.30;;;6.78;;
63555;SDS011;49700;48.072;7.800;2022-11-14T04:25:45;16.45;;;5.68;;
63555;SDS011;49700;48.072;7.800;2022-11-14T04:28:32;22.27;;;7.53;;
63555;SDS011;49700;48.072;7.800;2022-11-14T04:31:19;16.45;;;8.30;;
63555;SDS011;49700;48.072;7.800;2022-11-14T04:34:03;20.60;;;7.50;;
63555;SDS011;49700;48.072;7.800;2022-11-14T04:36:47;36.38;;;8.80;;
63555;SDS011;49700;48.072;7.800;2022-11-14T04:39:41;30.88;;;8.25;;
63555;SDS011;49700;48.072;7.800;2022-11-14T04:42:31;55.08;;;9.32;;
63555;SDS011;49700;48.072;7.800;2022-11-14T04:45:18;38.65;;;9.25;;
63555;SDS011;49700;48.072;7.800;2022-11-14T04:48:02;35.78;;;10.65;;
63555;SDS011;49700;48.072;7.800;2022-11-14T04:50:46;40.78;;;9.15;;
63555;SDS011;49700;48.072;7.800;2022-11-14T04:53:36;13.35;;;7.60;;
63555;SDS011;49700;48.072;7.800;2022-11-14T04:56:22;26.13;;;7.95;;
63555;SDS011;49700;48.072;7.800;2022-11-14T04:59:19;28.88;;;8.35;;
63555;SDS011;49700;48.072;7.800;2022-11-14T05:02:03;20.45;;;8.40;;
63555;SDS011;49700;48.072;7.800;2022-11-14T05:04:52;24.02;;;11.32;;
63555;SDS011;49700;48.072;7.800;2022-11-14T05:07:38;15.40;;;7.60;;
63555;SDS011;49700;48.072;7.800;2022-11-14T05:10:30;15.38;;;8.55;;
63555;SDS011;49700;48.072;7.800;2022-11-14T05:13:18;41.60;;;10.43;;
63555;SDS011;49700;48.072;7.800;2022-11-14T05:16:02;49.97;;;10.23;;
63555;SDS011;49700;48.072;7.800;2022-11-14T05:18:46;29.55;;;10.15;;
63555;SDS011;49700;48.072;7.800;2022-11-14T05:21:30;36.40;;;9.60;;
63555;SDS011;49700;48.072;7.800;2022-11-14T05:24:15;22.10;;;9.45;;
63555;SDS011;49700;48.072;7.800;2022-11-14T05:26:59;37.65;;;9.25;;
63555;SDS011;49700;48.072;7.800;2022-11-14T05:29:43;47.78;;;10.52;;
63555;SDS011;49700;48.072;7.800;2022-11-14T05:32:27;44.13;;;11.30;;
63555;SDS011;49700;48.072;7.800;2022-11-14T05:35:16;23.15;;;11.20;;
63555;SDS011;49700;48.072;7.800;2022-11-14T05:38:08;48.22;;;11.45;;
63555;SDS011;49700;48.072;7.800;2022-11-14T05:40:52;27.08;;;12.20;;
63555;SDS011;49700;48.072;7.800;2022-11-14T05:43:36;38.22;;;9.13;;
63555;SDS011;49700;48.072;7.800;2022-11-14T05:46:20;36.95;;;9.25;;
63555;SDS011;49700;48.072;7.800;2022-11-14T05:49:04;22.08;;;9.13;;
63555;SDS011;49700;48.072;7.800;2022-11-14T05:51:50;21.27;;;9.90;;
63555;SDS011;49700;48.072;7.800;2022-11-14T05:54:34;31.77;;;11.13;;
63555;SDS011;49700;48.072;7.800;2022-11-14T05:57:18;24.48;;;11.55;;
63555;SDS011;49700;48.072;7.800;2022-11-14T06:00:02;20.50;;;9.90;;
63555;SDS011;49700;48.072;7.800;2022-11-14T06:02:50;16.38;;;10.82;;
63555;SDS011;49700;48.072;7.800;2022-11-14T06:05:35;34.00;;;10.52;;
63555;SDS011;49700;48.072;7.800;2022-11-14T06:08:20;10.60;;;7.75;;
63555;SDS011;49700;48.072;7.800;2022-11-14T06:11:05;22.35;;;11.20;;
63555;SDS011;49700;48.072;7.800;2022-11-14T06:13:53;18.52;;;10.45;;
63555;SDS011;49700;48.072;7.800;2022-11-14T06:16:37;18.95;;;10.70;;
63555;SDS011;49700;48.072;7.800;2022-11-14T06:19:21;12.25;;;8.65;;
63555;SDS011;49700;48.072;7.800;2022-11-14T06:22:05;9.95;;;6.93;;
63555;SDS011;49700;48.072;7.800;2022-11-14T06:24:49;16.48;;;11.05;;
63555;SDS011;49700;48.072;7.800;2022-11-14T06:27:33;16.88;;;9.18;;
63555;SDS011;49700;48.072;7.800;2022-11-14T06:30:18;12.63;;;8.00;;
63555;SDS011;49700;48.072;7.800;2022-11-14T06:33:02;13.30;;;8.85;;
63555;SDS011;49700;48.072;7.800;2022-11-14T06:35:46;11.82;;;7.53;;
63555;SDS011;49700;48.072;7.800;2022-11-14T06:38:31;15.13;;;8.30;;
63555;SDS011;49700;48.072;7.800;2022-11-14T06:41:17;11.60;;;7.70;;
63555;SDS011;49700;48.072;7.800;2022-11-14T06:44:03;12.05;;;8.05;;
63555;SDS011;49700;48.072;7.800;2022-11-14T06:46:50;12.90;;;8.82;;
63555;SDS011;49700;48.072;7.800;2022-11-14T06:49:34;37.60;;;14.48;;
63555;SDS011;49700;48.072;7.800;2022-11-14T06:52:18;12.80;;;8.13;;
63555;SDS011;49700;48.072;7.800;2022-11-14T06:55:03;10.18;;;7.18;;
63555;SDS011;49700;48.072;7.800;2022-11-14T06:57:51;12.02;;;7.53;;
63555;SDS011;49700;48.072;7.800;2022-11-14T07:00:36;14.98;;;7.47;;
63555;SDS011;49700;48.072;7.800;2022-11-14T07:03:20;159.68;;;47.80;;
63555;SDS011;49700;48.072;7.800;2022-11-14T07:06:04;65.85;;;26.58;;
63555;SDS011;49700;48.072;7.800;2022-11-14T07:08:52;74.07;;;29.90;;
63555;SDS011;49700;48.072;7.800;2022-11-14T07:11:37;17.52;;;9.02;;
63555;SDS011;49700;48.072;7.800;2022-11-14T07:14:21;83.95;;;26.92;;
63555;SDS011;49700;48.072;7.800;2022-11-14T07:17:05;28.88;;;13.88;;
63555;SDS011;49700;48.072;7.800;2022-11-14T07:19:49;42.47;;;18.42;;
63555;SDS011;49700;48.072;7.800;2022-11-14T07:22:33;34.28;;;15.65;;
63555;SDS011;49700;48.072;7.800;2022-11-14T07:25:17;56.10;;;26.30;;
63555;SDS011;49700;48.072;7.800;2022-11-14T07:28:04;45.00;;;23.20;;
63555;SDS011;49700;48.072;7.800;2022-11-14T07:30:48;36.45;;;17.67;;
63555;SDS011;49700;48.072;7.800;2022-11-14T07:33:32;32.60;;;16.90;;
63555;SDS011;49700;48.072;7.800;2022-11-14T07:36:16;44.55;;;24.80;;
63555;SDS011;49700;48.072;7.800;2022-11-14T07:39:03;30.13;;;17.65;;
63555;SDS011;49700;48.072;7.800;2022-11-14T07:41:47;48.53;;;23.95;;
63555;SDS011;49700;48.072;7.800;2022-11-14T07:44:31;58.20;;;30.17;;
63555;SDS011;49700;48.072;7.800;2022-11-14T07:47:15;24.45;;;12.70;;
63555;SDS011;49700;48.072;7.800;2022-11-14T07:49:59;19.38;;;12.73;;
63555;SDS011;49700;48.072;7.800;2022-11-14T07:52:46;14.82;;;11.02;;
63555;SDS011;49700;48.072;7.800;2022-11-14T07:55:36;22.08;;;14.25;;
63555;SDS011;49700;48.072;7.800;2022-11-14T07:58:21;26.23;;;14.93;;
63555;SDS011;49700;48.072;7.800;2022-11-14T08:01:06;13.95;;;8.57;;
63555;SDS011;49700;48.072;7.800;2022-11-14T08:03:52;20.67;;;11.32;;
63555;SDS011;49700;48.072;7.800;2022-11-14T08:06:36;17.00;;;9.80;;
63555;SDS011;49700;48.072;7.800;2022-11-14T08:09:20;10.77;;;8.50;;
63555;SDS011;49700;48.072;7.800;2022-11-14T08:12:05;44.53;;;18.98;;
63555;SDS011;49700;48.072;7.800;2022-11-14T08:14:49;14.40;;;10.02;;
63555;SDS011;49700;48.072;7.800;2022-11-14T08:17:33;20.33;;;10.65;;
63555;SDS011;49700;48.072;7.800;2022-11-14T08:20:28;13.35;;;9.32;;
63555;SDS011;49700;48.072;7.800;2022-11-14T08:23:12;18.75;;;10.50;;
63555;SDS011;49700;48.072;7.800;2022-11-14T08:25:57;12.30;;;10.35;;
63555;SDS011;49700;48.072;7.800;2022-11-14T08:28:42;11.50;;;8.15;;
63555;SDS011;49700;48.072;7.800;2022-11-14T08:31:26;12.18;;;8.90;;
63555;SDS011;49700;48.072;7.800;2022-11-14T08:34:10;15.27;;;10.13;;
63555;SDS011;49700;48.072;7.800;2022-11-14T08:36:54;14.32;;;10.57;;
63555;SDS011;49700;48.072;7.800;2022-11-14T08:39:40;16.90;;;10.27;;
63555;SDS011;49700;48.072;7.800;2022-11-14T08:42:25;10.07;;;7.47;;
63555;SDS011;49700;48.072;7.800;2022-11-14T08:45:09;10.88;;;8.70;;
63555;SDS011;49700;48.072;7.800;2022-11-14T08:47:53;9.63;;;7.15;;
63555;SDS011;49700;48.072;7.800;2022-11-14T08:50:38;17.25;;;11.25;;
63555;SDS011;49700;48.072;7.800;2022-11-14T08:53:22;12.75;;;8.07;;
63555;SDS011;49700;48.072;7.800;2022-11-14T08:56:07;18.23;;;11.70;;
63555;SDS011;49700;48.072;7.800;2022-11-14T08:58:52;9.88;;;6.95;;
63555;SDS011;49700;48.072;7.800;2022-11-14T09:01:36;11.65;;;7.53;;
63555;SDS011;49700;48.072;7.800;2022-11-14T09:04:20;11.95;;;7.93;;
63555;SDS011;49700;48.072;7.800;2022-11-14T09:07:05;9.73;;;7.00;;
63555;SDS011;49700;48.072;7.800;2022-11-14T09:09:49;15.80;;;9.45;;
63555;SDS011;49700;48.072;7.800;2022-11-14T09:12:36;12.15;;;9.63;;
63555;SDS011;49700;48.072;7.800;2022-11-14T09:15:20;14.43;;;10.77;;
63555;SDS011;49700;48.072;7.800;2022-11-14T09:18:04;10.70;;;8.77;;
63555;SDS011;49700;48.072;7.800;2022-11-14T09:20:48;15.35;;;10.10;;
63555;SDS011;49700;48.072;7.800;2022-11-14T09:23:32;16.25;;;9.40;;
63555;SDS011;49700;48.072;7.800;2022-11-14T09:26:16;12.02;;;9.75;;
63555;SDS011;49700;48.072;7.800;2022-11-14T09:29:03;9.60;;;8.35;;
63555;SDS011;49700;48.072;7.800;2022-11-14T09:31:50;14.45;;;10.27;;
63555;SDS011;49700;48.072;7.800;2022-11-14T09:34:34;11.73;;;8.60;;
63555;SDS011;49700;48.072;7.800;2022-11-14T09:37:20;9.02;;;7.00;;
63555;SDS011;49700;48.072;7.800;2022-11-14T09:40:06;9.70;;;8.00;;
63555;SDS011;49700;48.072;7.800;2022-11-14T09:45:54;11.98;;;8.80;;
63555;SDS011;49700;48.072;7.800;2022-11-14T09:48:38;11.02;;;8.65;;
63555;SDS011;49700;48.072;7.800;2022-11-14T09:51:24;10.80;;;6.85;;
63555;SDS011;49700;48.072;7.800;2022-11-14T09:54:22;12.90;;;7.90;;
63555;SDS011;49700;48.072;7.800;2022-11-14T09:57:12;13.52;;;9.27;;
63555;SDS011;49700;48.072;7.800;2022-11-14T09:59:59;11.60;;;7.18;;
63555;SDS011;49700;48.072;7.800;2022-11-14T10:15:10;10.52;;;6.68;;
63555;SDS011;49700;48.072;7.800;2022-11-14T10:25:33;9.18;;;6.93;;
63555;SDS011;49700;48.072;7.800;2022-11-14T10:36:56;11.00;;;8.23;;
63555;SDS011;49700;48.072;7.800;2022-11-14T10:39:50;9.60;;;6.68;;
63555;SDS011;49700;48.072;7.800;2022-11-14T10:42:37;11.43;;;9.05;;
63555;SDS011;49700;48.072;7.800;2022-11-14T10:48:09;10.13;;;8.82;;
63555;SDS011;49700;48.072;7.800;2022-11-14T10:50:59;12.13;;;8.15;;
63555;SDS011;49700;48.072;7.800;2022-11-14T10:53:55;10.95;;;7.50;;
63555;SDS011;49700;48.072;7.800;2022-11-14T10:57:17;13.77;;;7.68;;
63555;SDS011;49700;48.072;7.800;2022-11-14T11:00:14;9.38;;;8.38;;
63555;SDS011;49700;48.072;7.800;2022-11-14T11:03:02;11.65;;;8.05;;
63555;SDS011;49700;48.072;7.800;2022-11-14T11:05:51;7.63;;;6.80;;
63555;SDS011;49700;48.072;7.800;2022-11-14T11:08:42;12.30;;;9.00;;
63555;SDS011;49700;48.072;7.800;2022-11-14T11:11:55;25.45;;;12.68;;
63555;SDS011;49700;48.072;7.800;2022-11-14T11:14:40;11.32;;;8.00;;
63555;SDS011;49700;48.072;7.800;2022-11-14T11:17:25;69.60;;;30.08;;
63555;SDS011;49700;48.072;7.800;2022-11-14T11:23:17;17.50;;;10.45;;
63555;SDS011;49700;48.072;7.800;2022-11-14T11:26:18;13.70;;;9.10;;
63555;SDS011;49700;48.072;7.800;2022-11-14T11:31:57;12.68;;;7.13;;
63555;SDS011;49700;48.072;7.800;2022-11-14T11:34:41;13.80;;;8.13;;
63555;SDS011;49700;48.072;7.800;2022-11-14T11:37:27;18.75;;;12.15;;
63555;SDS011;49700;48.072;7.800;2022-11-14T11:40:45;12.38;;;7.80;;
63555;SDS011;49700;48.072;7.800;2022-11-14T11:43:40;19.83;;;10.13;;
63555;SDS011;49700;48.072;7.800;2022-11-14T11:46:39;44.28;;;20.50;;
63555;SDS011;49700;48.072;7.800;2022-11-14T11:52:42;8.35;;;7.18;;
63555;SDS011;49700;48.072;7.800;2022-11-14T11:55:48;8.00;;;7.15;;
63555;SDS011;49700;48.072;7.800;2022-11-14T11:58:47;11.98;;;7.25;;
63555;SDS011;49700;48.072;7.800;2022-11-14T12:01:34;10.30;;;7.57;;
63555;SDS011;49700;48.072;7.800;2022-11-14T12:04:18;9.65;;;7.05;;
63555;SDS011;49700;48.072;7.800;2022-11-14T12:07:03;7.15;;;6.45;;
63555;SDS011;49700;48.072;7.800;2022-11-14T12:09:57;12.10;;;6.05;;
63555;SDS011;49700;48.072;7.800;2022-11-14T12:21:37;15.77;;;10.07;;
63555;SDS011;49700;48.072;7.800;2022-11-14T12:28:00;11.82;;;7.80;;
63555;SDS011;49700;48.072;7.800;2022-11-14T12:30:55;8.45;;;6.70;;
63555;SDS011;49700;48.072;7.800;2022-11-14T12:33:49;18.70;;;11.45;;
63555;SDS011;49700;48.072;7.800;2022-11-14T12:36:46;16.67;;;7.60;;
63555;SDS011;49700;48.072;7.800;2022-11-14T12:39:33;9.50;;;6.35;;
63555;SDS011;49700;48.072;7.800;2022-11-14T12:42:27;10.10;;;6.95;;
63555;SDS011;49700;48.072;7.800;2022-11-14T12:54:27;10.13;;;7.20;;
63555;SDS011;49700;48.072;7.800;2022-11-14T12:57:38;8.05;;;7.18;;
63555;SDS011;49700;48.072;7.800;2022-11-14T13:13:11;24.60;;;16.70;;
63555;SDS011;49700;48.072;7.800;2022-11-14T13:16:25;13.07;;;9.07;;
63555;SDS011;49700;48.072;7.800;2022-11-14T13:19:32;12.35;;;8.88;;
63555;SDS011;49700;48.072;7.800;2022-11-14T13:22:39;13.43;;;7.00;;
63555;SDS011;49700;48.072;7.800;2022-11-14T13:25:25;12.15;;;6.47;;
63555;SDS011;49700;48.072;7.800;2022-11-14T13:37:33;8.63;;;6.28;;
63555;SDS011;49700;48.072;7.800;2022-11-14T13:40:24;6.32;;;5.72;;
63555;SDS011;49700;48.072;7.800;2022-11-14T13:52:51;13.60;;;5.63;;
63555;SDS011;49700;48.072;7.800;2022-11-14T13:55:37;10.38;;;5.03;;
63555;SDS011;49700;48.072;7.800;2022-11-14T13:58:30;5.78;;;4.50;;
63555;SDS011;49700;48.072;7.800;2022-11-14T14:04:19;5.55;;;5.00;;
63555;SDS011;49700;48.072;7.800;2022-11-14T14:10:54;15.32;;;8.55;;
63555;SDS011;49700;48.072;7.800;2022-11-14T14:14:04;13.85;;;8.70;;
63555;SDS011;49700;48.072;7.800;2022-11-14T14:16:55;9.90;;;7.07;;
63555;SDS011;49700;48.072;7.800;2022-11-14T14:19:55;8.77;;;7.43;;
63555;SDS011;49700;48.072;7.800;2022-11-14T14:32:14;13.13;;;6.50;;
63555;SDS011;49700;48.072;7.800;2022-11-14T14:38:04;8.57;;;6.95;;
63555;SDS011;49700;48.072;7.800;2022-11-14T14:40:53;8.77;;;7.35;;
63555;SDS011;49700;48.072;7.800;2022-11-14T14:43:39;10.07;;;7.07;;
63555;SDS011;49700;48.072;7.800;2022-11-14T14:46:28;9.30;;;6.05;;
63555;SDS011;49700;48.072;7.800;2022-11-14T14:52:34;11.82;;;8.75;;
63555;SDS011;49700;48.072;7.800;2022-11-14T14:55:23;11.05;;;9.10;;
63555;SDS011;49700;48.072;7.800;2022-11-14T15:01:17;6.78;;;6.07;;
63555;SDS011;49700;48.072;7.800;2022-11-14T15:04:06;8.82;;;6.88;;
63555;SDS011;49700;48.072;7.800;2022-11-14T15:06:56;9.43;;;7.10;;
63555;SDS011;49700;48.072;7.800;2022-11-14T15:09:50;9.90;;;7.20;;
63555;SDS011;49700;48.072;7.800;2022-11-14T15:12:46;8.90;;;7.05;;
63555;SDS011;49700;48.072;7.800;2022-11-14T15:15:34;6.43;;;5.68;;
63555;SDS011;49700;48.072;7.800;2022-11-14T15:18:31;9.45;;;6.82;;
63555;SDS011;49700;48.072;7.800;2022-11-14T15:27:02;11.23;;;8.90;;
63555;SDS011;49700;48.072;7.800;2022-11-14T15:29:55;9.32;;;7.50;;
63555;SDS011;49700;48.072;7.800;2022-11-14T15:32:47;18.08;;;9.98;;
63555;SDS011;49700;48.072;7.800;2022-11-14T15:35:34;10.85;;;8.30;;
63555;SDS011;49700;48.072;7.800;2022-11-14T15:38:22;11.20;;;8.93;;
63555;SDS011;49700;48.072;7.800;2022-11-14T15:41:22;21.23;;;12.20;;
63555;SDS011;49700;48.072;7.800;2022-11-14T15:47:16;22.73;;;16.50;;
63555;SDS011;49700;48.072;7.800;2022-11-14T15:50:03;16.13;;;11.77;;
63555;SDS011;49700;48.072;7.800;2022-11-14T15:56:04;16.23;;;13.13;;
63555;SDS011;49700;48.072;7.800;2022-11-14T15:58:48;24.85;;;12.80;;
63555;SDS011;49700;48.072;7.800;2022-11-14T16:01:33;19.92;;;13.15;;
63555;SDS011;49700;48.072;7.800;2022-11-14T16:04:21;21.33;;;12.23;;
63555;SDS011;49700;48.072;7.800;2022-11-14T16:07:21;16.25;;;12.65;;
63555;SDS011;49700;48.072;7.800;2022-11-14T16:10:18;19.77;;;13.93;;
63555;SDS011;49700;48.072;7.800;2022-11-14T16:13:07;15.80;;;13.73;;
63555;SDS011;49700;48.072;7.800;2022-11-14T16:15:54;15.98;;;13.40;;
63555;SDS011;49700;48.072;7.800;2022-11-14T16:18:40;20.77;;;13.77;;
63555;SDS011;49700;48.072;7.800;2022-11-14T16:21:37;24.80;;;19.00;;
63555;SDS011;49700;48.072;7.800;2022-11-14T16:24:22;23.20;;;14.90;;
63555;SDS011;49700;48.072;7.800;2022-11-14T16:27:18;21.50;;;14.85;;
63555;SDS011;49700;48.072;7.800;2022-11-14T16:30:06;11.63;;;9.90;;
63555;SDS011;49700;48.072;7.800;2022-11-14T16:32:51;11.10;;;10.00;;
63555;SDS011;49700;48.072;7.800;2022-11-14T16:35:48;14.73;;;9.18;;
63555;SDS011;49700;48.072;7.800;2022-11-14T16:42:06;12.45;;;8.50;;
63555;SDS011;49700;48.072;7.800;2022-11-14T16:44:59;11.23;;;7.95;;
63555;SDS011;49700;48.072;7.800;2022-11-14T16:48:06;8.30;;;7.22;;
63555;SDS011;49700;48.072;7.800;2022-11-14T16:50:59;8.25;;;7.07;;
63555;SDS011;49700;48.072;7.800;2022-11-14T16:54:05;7.85;;;7.15;;
63555;SDS011;49700;48.072;7.800;2022-11-14T16:56:55;9.45;;;7.60;;
63555;SDS011;49700;48.072;7.800;2022-11-14T17:00:12;8.18;;;7.20;;
63555;SDS011;49700;48.072;7.800;2022-11-14T17:03:17;10.38;;;8.75;;
63555;SDS011;49700;48.072;7.800;2022-11-14T17:06:06;10.25;;;7.30;;
63555;SDS011;49700;48.072;7.800;2022-11-14T17:09:10;12.13;;;8.30;;
63555;SDS011;49700;48.072;7.800;2022-11-14T17:11:59;9.70;;;8.70;;
63555;SDS011;49700;48.072;7.800;2022-11-14T17:14:46;8.23;;;7.40;;
63555;SDS011;49700;48.072;7.800;2022-11-14T17:17:38;9.07;;;7.65;;
63555;SDS011;49700;48.072;7.800;2022-11-14T17:20:36;11.20;;;8.75;;
63555;SDS011;49700;48.072;7.800;2022-11-14T17:23:21;12.48;;;8.02;;
63555;SDS011;49700;48.072;7.800;2022-11-14T17:26:13;11.65;;;8.50;;
63555;SDS011;49700;48.072;7.800;2022-11-14T17:29:00;12.50;;;11.20;;
63555;SDS011;49700;48.072;7.800;2022-11-14T17:31:57;16.58;;;11.45;;
63555;SDS011;49700;48.072;7.800;2022-11-14T17:34:54;11.98;;;10.57;;
63555;SDS011;49700;48.072;7.800;2022-11-14T17:37:43;13.93;;;12.43;;
63555;SDS011;49700;48.072;7.800;2022-11-14T17:40:47;15.55;;;13.55;;
63555;SDS011;49700;48.072;7.800;2022-11-14T17:43:44;22.52;;;18.08;;
63555;SDS011;49700;48.072;7.800;2022-11-14T17:46:42;23.52;;;18.42;;
63555;SDS011;49700;48.072;7.800;2022-11-14T17:49:26;23.75;;;18.35;;
63555;SDS011;49700;48.072;7.800;2022-11-14T17:52:17;30.38;;;24.98;;
63555;SDS011;49700;48.072;7.800;2022-11-14T17:55:04;27.67;;;22.25;;
63555;SDS011;49700;48.072;7.800;2022-11-14T17:57:48;25.95;;;22.35;;
63555;SDS011;49700;48.072;7.800;2022-11-14T18:01:04;30.75;;;21.95;;
63555;SDS011;49700;48.072;7.800;2022-11-14T18:04:05;26.83;;;24.00;;
63555;SDS011;49700;48.072;7.800;2022-11-14T18:10:03;19.17;;;15.10;;
63555;SDS011;49700;48.072;7.800;2022-11-14T18:12:58;19.30;;;15.15;;
63555;SDS011;49700;48.072;7.800;2022-11-14T18:16:05;45.05;;;35.63;;
63555;SDS011;49700;48.072;7.800;2022-11-14T18:18:58;73.38;;;54.03;;
63555;SDS011;49700;48.072;7.800;2022-11-14T18:22:12;67.38;;;50.10;;
63555;SDS011;49700;48.072;7.800;2022-11-14T18:25:18;58.38;;;51.25;;
63555;SDS011;49700;48.072;7.800;2022-11-14T18:28:12;56.85;;;44.38;;
63555;SDS011;49700;48.072;7.800;2022-11-14T18:31:01;61.90;;;40.67;;
63555;SDS011;49700;48.072;7.800;2022-11-14T18:33:50;45.33;;;39.72;;
63555;SDS011;49700;48.072;7.800;2022-11-14T18:36:39;48.22;;;40.10;;
63555;SDS011;49700;48.072;7.800;2022-11-14T18:39:36;42.38;;;35.20;;
63555;SDS011;49700;48.072;7.800;2022-11-14T18:45:54;34.78;;;30.13;;
63555;SDS011;49700;48.072;7.800;2022-11-14T18:48:48;40.33;;;32.53;;
63555;SDS011;49700;48.072;7.800;2022-11-14T18:51:55;35.78;;;28.77;;
63555;SDS011;49700;48.072;7.800;2022-11-14T18:55:01;30.67;;;25.65;;
63555;SDS011;49700;48.072;7.800;2022-11-14T18:57:56;29.77;;;24.88;;
63555;SDS011;49700;48.072;7.800;2022-11-14T19:01:06;33.80;;;25.60;;
63555;SDS011;49700;48.072;7.800;2022-11-14T19:04:55;44.65;;;30.92;;